Brighton Beach, South Carolina
Current Conditions -  °F | °C
As of 10:35 PM on Saturday 25 Oct 2014 (Local Time) from KHXD Reporting Station
NA  
Wind Chill: 13°   Ceiling: NA
Heat Index: 13°   Visibility: NA
Dew Point: 12°   Wind: 0mph
Humidity: 94%   Direction: NA
Pressure: 30"   Gusts: NA
Location:  32.2133°N, 80.9033°W
Report Text: KHXD 260235Z AUTO 00000KT 13/12 A3000 RMK AO2 P0000
Loading
Personal Weather Stations






























Interactive Weather Map
Tropical Storm Tracking
New forecast layout! Learn more

10-Day Weather Forecast

Advertisements
Track Severe Weather on mobile